»·PEaware :: N13W KPSP-KSNA

N13W :: KPSP-KSNA

FLIGHT INFORMATION

Flight Status: Arrived
Operator: Privately registered:
United States
More flights under this callsign
Pilot: Will N. (25416)
Aircraft: CESSNA 172 SKYHAWK
(C172)
More flights by this aircraft type
Origin: KPSP Palm Springs Intl
United States
Destination: KSNA John Wayne-Orange Co
United States
More flights between these airports :: More routes between these airports
Route: PSP V388 PDZ PDZ270/13 RNDAL V363 POXKU V8 SLI
File this flight plan on PilotEdge
Remarks:
Altitude:
(Current/Filed)
10,000ft
Speed:
(Current/Filed)
120kts
Departed: 24-Aug-19 01:45 AM
Arrived: 24-Aug-19 02:31 AM
Distance/Time
Traveled:
69nm/0:46
Distance/Time
To Go:
Arrived

Flight Plot

Page will automatically refresh every two minutes.


Map Options




Map Legend


Flown Route
Filed Route
Departure Airport
Arrival Airport
Navaid (VOR, NDB)
Fix

Horizontal Profiles

Position Reports

Time Latitude Longitude Heading Altitude Ground
Speed
24-Aug-19 01:38 33.824186 -116.499047 55 401ft 0kts
24-Aug-19 01:39 33.824186 -116.499047 55 401ft 0kts
24-Aug-19 01:40 33.824186 -116.499047 55 401ft 0kts
24-Aug-19 01:41 33.824186 -116.499047 55 401ft 0kts
24-Aug-19 01:42 33.824323 -116.498907 21 401ft 5kts
24-Aug-19 01:43 33.824528 -116.499788 235 403ft 6kts
24-Aug-19 01:44 33.833647 -116.508510 323 617ft 83kts
24-Aug-19 01:45 33.855580 -116.515100 351 1485ft 81kts
24-Aug-19 01:46 33.878047 -116.519129 351 2289ft 82kts
24-Aug-19 01:47 33.893628 -116.536982 296 3030ft 88kts
24-Aug-19 01:48 33.902374 -116.565187 293 3737ft 90kts
24-Aug-19 01:49 33.910648 -116.594201 291 4401ft 92kts
24-Aug-19 01:50 33.918216 -116.623370 291 5085ft 88kts
24-Aug-19 01:51 33.925931 -116.652897 290 5647ft 95kts
24-Aug-19 01:52 33.933910 -116.683543 290 6254ft 90kts
24-Aug-19 01:53 33.941424 -116.712422 289 6821ft 91kts
24-Aug-19 01:54 33.947906 -116.741990 273 7363ft 92kts
24-Aug-19 01:55 33.947434 -116.773148 269 7882ft 93kts
24-Aug-19 01:56 33.946428 -116.804466 268 8379ft 93kts
24-Aug-19 01:57 33.945385 -116.835930 270 8855ft 94kts
24-Aug-19 01:58 33.945167 -116.867384 263 9311ft 94kts
24-Aug-19 01:59 33.943226 -116.900576 267 9560ft 113kts
24-Aug-19 02:00 33.941800 -116.940668 268 9553ft 118kts
24-Aug-19 02:01 33.940383 -116.980939 268 9554ft 122kts
24-Aug-19 02:02 33.938920 -117.022249 268 9554ft 123kts
24-Aug-19 02:03 33.937460 -117.063540 265 9555ft 122kts
24-Aug-19 02:04 33.935974 -117.104280 264 9563ft 120kts
24-Aug-19 02:05 33.934473 -117.145111 264 9490ft 120kts
24-Aug-19 02:06 33.932848 -117.185213 264 9489ft 119kts
24-Aug-19 02:07 33.931138 -117.225044 264 9487ft 119kts
24-Aug-19 02:08 33.929413 -117.264852 264 9486ft 119kts
24-Aug-19 02:09 33.927669 -117.304815 264 9484ft 119kts
24-Aug-19 02:10 33.925909 -117.344837 264 9483ft 119kts
24-Aug-19 02:11 33.924273 -117.384799 264 9482ft 119kts
24-Aug-19 02:12 33.922660 -117.424740 264 9482ft 119kts
24-Aug-19 02:13 33.921023 -117.464663 264 9482ft 119kts
24-Aug-19 02:14 33.919349 -117.504662 264 9482ft 119kts
24-Aug-19 02:15 33.920034 -117.545928 283 9042ft 130kts
24-Aug-19 02:16 33.930883 -117.589338 283 8256ft 135kts
24-Aug-19 02:17 33.941035 -117.632031 283 7459ft 131kts
24-Aug-19 02:18 33.928233 -117.670603 240 6646ft 123kts
24-Aug-19 02:19 33.922138 -117.710978 268 5848ft 124kts
24-Aug-19 02:20 33.922630 -117.752728 270 5048ft 124kts
24-Aug-19 02:21 33.908399 -117.780959 192 4571ft 118kts
24-Aug-19 02:22 33.874504 -117.780667 179 3969ft 118kts
24-Aug-19 02:23 33.841857 -117.779209 179 3490ft 120kts
24-Aug-19 02:24 33.808144 -117.784909 206 2794ft 125kts
24-Aug-19 02:25 33.776978 -117.804544 208 2167ft 121kts
24-Aug-19 02:26 33.746933 -117.823645 207 1530ft 111kts
24-Aug-19 02:27 33.720452 -117.840444 207 954ft 107kts
24-Aug-19 02:28 33.699393 -117.853796 207 490ft 71kts
24-Aug-19 02:29 33.683005 -117.864198 206 138ft 64kts
24-Aug-19 02:30 33.672284 -117.871570 262 60ft 9kts
24-Aug-19 02:31 33.672675 -117.873337 207 60ft 0kts

Navigation Log

Ident Type
Flight plan parsing failed, navigation log unavailable